Time;durP1;ratioP1;P1;durP2;ratioP2;P2;SDS_P1;SDS_P2;PMS_P1;PMS_P2;Temp;Humidity;BMP_temperature;BMP_pressure;BME280_temperature;BME280_humidity;BME280_pressure;Samples;Min_cycle;Max_cycle;Signal;HPM_P1;HPM_P2
2022/11/14 00:00:24;;;;;;;5.85;3.58;;;;;;;;;;1779748;79;21063;-56
2022/11/14 00:03:10;;;;;;;6.05;3.47;;;;;;;;;;1788292;80;21012;-56
2022/11/14 00:05:54;;;;;;;7.85;3.45;;;;;;;;;;1815261;79;21001;-56
2022/11/14 00:08:38;;;;;;;5.22;3.00;;;;;;;;;;1800014;79;21008;-57
2022/11/14 00:11:23;;;;;;;4.42;3.02;;;;;;;;;;1818404;78;21042;-58
2022/11/14 00:14:08;;;;;;;5.65;3.10;;;;;;;;;;1811940;79;21012;-57
2022/11/14 00:16:55;;;;;;;5.47;3.25;;;;;;;;;;1797763;79;21558;-59
2022/11/14 00:19:41;;;;;;;5.78;3.35;;;;;;;;;;1806853;79;21056;-56
2022/11/14 00:22:26;;;;;;;5.45;3.58;;;;;;;;;;1783437;80;21032;-56
2022/11/14 00:25:10;;;;;;;7.10;4.00;;;;;;;;;;1775880;80;21475;-56
2022/11/14 00:27:57;;;;;;;7.83;3.95;;;;;;;;;;1772165;80;21051;-56
2022/11/14 00:30:47;;;;;;;6.75;3.92;;;;;;;;;;1777132;79;22254;-56
2022/11/14 00:33:32;;;;;;;6.47;3.95;;;;;;;;;;1784479;80;21051;-56
2022/11/14 00:36:16;;;;;;;7.45;3.75;;;;;;;;;;1768293;80;21149;-56
2022/11/14 00:39:01;;;;;;;10.10;4.58;;;;;;;;;;1764033;79;21567;-56
2022/11/14 00:41:46;;;;;;;8.78;4.33;;;;;;;;;;1799259;79;21043;-56
2022/11/14 00:44:31;;;;;;;9.50;5.08;;;;;;;;;;1800456;79;21021;-56
2022/11/14 00:47:16;;;;;;;8.45;5.10;;;;;;;;;;1798958;79;21476;-56
2022/11/14 00:50:01;;;;;;;9.25;4.85;;;;;;;;;;1798832;79;21059;-56
2022/11/14 00:52:45;;;;;;;8.33;4.58;;;;;;;;;;1800402;80;21476;-56
2022/11/14 00:55:31;;;;;;;8.23;4.58;;;;;;;;;;1780637;79;21048;-55
2022/11/14 00:58:15;;;;;;;11.45;5.03;;;;;;;;;;1768993;80;21003;-55
2022/11/14 01:01:00;;;;;;;9.53;4.62;;;;;;;;;;1781749;79;21043;-55
2022/11/14 01:03:48;;;;;;;7.17;4.15;;;;;;;;;;1790623;79;20988;-56
2022/11/14 01:06:34;;;;;;;8.30;4.72;;;;;;;;;;1789300;79;21092;-56
2022/11/14 01:09:19;;;;;;;7.80;4.75;;;;;;;;;;1791302;80;21519;-56
2022/11/14 01:12:05;;;;;;;8.73;4.87;;;;;;;;;;1763234;80;21040;-56
2022/11/14 01:14:49;;;;;;;6.95;4.15;;;;;;;;;;1808817;79;21032;-56
2022/11/14 01:17:34;;;;;;;9.40;4.90;;;;;;;;;;1744608;81;21054;-57
2022/11/14 01:20:18;;;;;;;9.35;4.28;;;;;;;;;;1773543;80;21023;-56
2022/11/14 01:23:03;;;;;;;7.55;4.75;;;;;;;;;;1772079;80;21046;-56
2022/11/14 01:25:47;;;;;;;8.93;5.15;;;;;;;;;;1779330;80;21474;-57
2022/11/14 01:28:32;;;;;;;8.68;4.72;;;;;;;;;;1800827;79;21055;-57
2022/11/14 01:31:18;;;;;;;8.75;4.58;;;;;;;;;;1802459;79;21012;-57
2022/11/14 01:34:02;;;;;;;9.73;5.17;;;;;;;;;;1800526;79;21016;-57
2022/11/14 01:36:47;;;;;;;8.10;4.28;;;;;;;;;;1793820;79;21071;-57
2022/11/14 01:39:32;;;;;;;8.28;4.55;;;;;;;;;;1801158;79;21027;-56
2022/11/14 01:42:17;;;;;;;7.85;4.85;;;;;;;;;;1790541;79;21045;-56
2022/11/14 01:45:04;;;;;;;7.87;4.35;;;;;;;;;;1787950;80;21059;-56
2022/11/14 01:47:48;;;;;;;8.93;4.72;;;;;;;;;;1773287;80;21070;-56
2022/11/14 01:50:33;;;;;;;7.28;4.87;;;;;;;;;;1789560;80;20995;-56
2022/11/14 01:53:18;;;;;;;8.88;5.42;;;;;;;;;;1773306;80;21016;-56
2022/11/14 01:56:05;;;;;;;9.45;5.15;;;;;;;;;;1776255;80;21078;-56
2022/11/14 01:58:51;;;;;;;7.62;5.22;;;;;;;;;;1762667;80;21063;-56
2022/11/14 02:04:30;;;;;;;10.23;5.75;;;;;;;;;;1745582;78;77488;-56
2022/11/14 02:07:14;;;;;;;9.93;5.00;;;;;;;;;;1729086;82;21012;-55
2022/11/14 02:10:01;;;;;;;9.85;5.10;;;;;;;;;;1722170;83;21526;-57
2022/11/14 02:12:45;;;;;;;9.10;4.72;;;;;;;;;;1732782;83;21562;-56
2022/11/14 02:15:30;;;;;;;7.40;5.12;;;;;;;;;;1729237;82;20976;-56
2022/11/14 02:18:15;;;;;;;9.60;5.05;;;;;;;;;;1731446;83;21020;-56
2022/11/14 02:20:59;;;;;;;8.30;4.87;;;;;;;;;;1733134;83;21467;-56
2022/11/14 02:23:44;;;;;;;7.33;4.37;;;;;;;;;;1719916;82;21048;-56
2022/11/14 02:26:31;;;;;;;8.15;4.85;;;;;;;;;;1731143;82;21538;-56
2022/11/14 02:29:16;;;;;;;9.03;4.47;;;;;;;;;;1729733;83;21060;-55
2022/11/14 02:32:00;;;;;;;8.50;4.72;;;;;;;;;;1729820;83;21502;-56
2022/11/14 02:34:46;;;;;;;7.75;4.15;;;;;;;;;;1729502;82;21036;-56
2022/11/14 02:37:31;;;;;;;7.58;5.20;;;;;;;;;;1728602;83;21507;-56
2022/11/14 02:40:16;;;;;;;7.05;4.62;;;;;;;;;;1723519;83;21053;-56
2022/11/14 02:43:00;;;;;;;9.23;5.30;;;;;;;;;;1731423;82;21530;-56
2022/11/14 02:45:45;;;;;;;9.50;4.72;;;;;;;;;;1732330;82;21019;-56
2022/11/14 02:48:30;;;;;;;8.18;4.62;;;;;;;;;;1729942;83;21087;-56
2022/11/14 02:51:15;;;;;;;10.38;5.03;;;;;;;;;;1722152;83;22018;-56
2022/11/14 02:54:00;;;;;;;8.08;4.78;;;;;;;;;;1729616;82;21056;-57
2022/11/14 02:56:45;;;;;;;9.25;4.87;;;;;;;;;;1730649;83;21534;-57
2022/11/14 02:59:31;;;;;;;10.72;5.70;;;;;;;;;;1729778;83;21056;-57
2022/11/14 03:02:16;;;;;;;7.05;4.55;;;;;;;;;;1733926;83;20995;-56
2022/11/14 03:05:01;;;;;;;9.75;6.05;;;;;;;;;;1754876;81;21069;-56
2022/11/14 03:07:46;;;;;;;9.48;4.65;;;;;;;;;;1752912;81;21055;-56
2022/11/14 03:10:30;;;;;;;8.30;4.72;;;;;;;;;;1759059;81;21597;-56
2022/11/14 03:13:14;;;;;;;9.65;4.95;;;;;;;;;;1759580;81;21666;-56
2022/11/14 03:16:06;;;;;;;10.53;5.67;;;;;;;;;;1755364;81;21034;-55
2022/11/14 03:18:50;;;;;;;9.83;5.35;;;;;;;;;;1756306;81;21030;-56
2022/11/14 03:21:35;;;;;;;11.28;5.67;;;;;;;;;;1756102;81;21006;-56
2022/11/14 03:24:19;;;;;;;13.55;6.35;;;;;;;;;;1754469;81;21527;-56
2022/11/14 03:27:04;;;;;;;10.15;5.58;;;;;;;;;;1745438;82;22021;-56
2022/11/14 03:29:49;;;;;;;8.98;5.33;;;;;;;;;;1758874;81;21077;-56
2022/11/14 03:32:34;;;;;;;11.15;6.17;;;;;;;;;;1754591;81;21032;-56
2022/11/14 03:35:19;;;;;;;11.75;6.53;;;;;;;;;;1749352;81;21043;-57
2022/11/14 03:38:04;;;;;;;14.43;7.25;;;;;;;;;;1751302;81;21036;-56
2022/11/14 03:40:50;;;;;;;10.43;6.80;;;;;;;;;;1756964;81;21505;-57
2022/11/14 03:43:35;;;;;;;9.70;5.72;;;;;;;;;;1752818;81;21064;-56
2022/11/14 03:46:20;;;;;;;10.70;6.05;;;;;;;;;;1750482;81;21034;-56
2022/11/14 03:49:05;;;;;;;13.00;7.25;;;;;;;;;;1759911;81;21533;-56
2022/11/14 03:51:50;;;;;;;14.07;8.18;;;;;;;;;;1757420;81;21005;-57
2022/11/14 03:54:36;;;;;;;14.55;7.97;;;;;;;;;;1749051;81;21051;-56
2022/11/14 03:57:21;;;;;;;13.20;7.67;;;;;;;;;;1752635;81;21051;-57
2022/11/14 04:00:07;;;;;;;14.10;7.45;;;;;;;;;;1759923;81;21525;-57
2022/11/14 04:02:53;;;;;;;15.38;8.20;;;;;;;;;;1756975;81;21000;-56
2022/11/14 04:05:37;;;;;;;12.95;7.15;;;;;;;;;;1756666;80;21014;-56
2022/11/14 04:08:22;;;;;;;13.78;6.85;;;;;;;;;;1753908;81;21064;-56
2022/11/14 04:11:07;;;;;;;12.03;6.70;;;;;;;;;;1757212;81;21026;-57
2022/11/14 04:13:51;;;;;;;12.07;6.22;;;;;;;;;;1752901;81;21048;-56
2022/11/14 04:16:36;;;;;;;10.60;5.87;;;;;;;;;;1748971;81;21040;-56
2022/11/14 04:19:21;;;;;;;10.38;6.05;;;;;;;;;;1749739;81;21035;-56
2022/11/14 04:22:06;;;;;;;9.58;5.65;;;;;;;;;;1751374;81;21055;-56
2022/11/14 04:24:52;;;;;;;10.95;6.00;;;;;;;;;;1751218;81;21071;-57
2022/11/14 04:27:37;;;;;;;10.50;5.83;;;;;;;;;;1747294;81;21023;-56
2022/11/14 04:30:22;;;;;;;12.10;5.80;;;;;;;;;;1750597;81;20981;-56
2022/11/14 04:33:07;;;;;;;11.65;5.25;;;;;;;;;;1752103;81;21047;-55
2022/11/14 04:35:52;;;;;;;11.55;5.70;;;;;;;;;;1748249;82;20989;-56
2022/11/14 04:38:38;;;;;;;11.28;6.58;;;;;;;;;;1754126;81;21015;-56
2022/11/14 04:41:23;;;;;;;15.38;8.00;;;;;;;;;;1759733;81;21054;-56
2022/11/14 04:44:07;;;;;;;16.70;8.28;;;;;;;;;;1752055;81;21499;-57
2022/11/14 04:46:52;;;;;;;14.98;6.92;;;;;;;;;;1748362;82;21025;-57
2022/11/14 04:49:36;;;;;;;16.87;6.78;;;;;;;;;;1748834;81;21020;-56
2022/11/14 04:52:21;;;;;;;11.78;6.95;;;;;;;;;;1748448;82;21075;-57
2022/11/14 04:55:06;;;;;;;9.90;5.83;;;;;;;;;;1738148;81;21210;-56
2022/11/14 04:57:54;;;;;;;12.03;5.53;;;;;;;;;;1749806;81;21595;-56
2022/11/14 05:00:39;;;;;;;10.53;6.12;;;;;;;;;;1736642;81;21026;-56
2022/11/14 05:03:24;;;;;;;8.83;5.28;;;;;;;;;;1756568;81;21056;-57
2022/11/14 05:06:09;;;;;;;12.40;5.95;;;;;;;;;;1749921;81;22009;-57
2022/11/14 05:08:54;;;;;;;14.15;5.80;;;;;;;;;;1758759;81;21283;-56
2022/11/14 05:11:40;;;;;;;11.15;6.05;;;;;;;;;;1759888;81;21007;-56
2022/11/14 05:14:24;;;;;;;14.05;6.62;;;;;;;;;;1749486;81;20992;-55
2022/11/14 05:17:09;;;;;;;12.13;6.25;;;;;;;;;;1758780;81;21010;-56
2022/11/14 05:19:53;;;;;;;12.95;6.95;;;;;;;;;;1758664;81;21026;-56
2022/11/14 05:22:38;;;;;;;12.20;5.85;;;;;;;;;;1740582;80;21028;-56
2022/11/14 05:25:22;;;;;;;12.20;6.70;;;;;;;;;;1744519;81;22146;-56
2022/11/14 05:28:07;;;;;;;11.10;6.22;;;;;;;;;;1751458;81;21056;-56
2022/11/14 05:30:52;;;;;;;11.03;6.67;;;;;;;;;;1750641;81;21038;-57
2022/11/14 05:33:37;;;;;;;14.65;7.67;;;;;;;;;;1757293;80;21064;-55
2022/11/14 05:36:22;;;;;;;16.62;7.97;;;;;;;;;;1750869;80;21575;-56
2022/11/14 05:39:07;;;;;;;12.55;7.40;;;;;;;;;;1748701;81;21036;-56
2022/11/14 05:41:51;;;;;;;13.28;6.85;;;;;;;;;;1751540;81;22048;-57
2022/11/14 05:44:37;;;;;;;9.10;5.53;;;;;;;;;;1753987;80;20994;-57
2022/11/14 05:47:22;;;;;;;10.28;5.85;;;;;;;;;;1754225;80;21033;-57
2022/11/14 05:50:07;;;;;;;8.50;5.22;;;;;;;;;;1755061;80;21559;-56
2022/11/14 05:52:55;;;;;;;7.90;4.72;;;;;;;;;;1757805;80;21016;-57
2022/11/14 05:55:39;;;;;;;6.33;3.62;;;;;;;;;;1750195;81;21530;-58
2022/11/14 05:58:23;;;;;;;7.03;3.98;;;;;;;;;;1750442;81;21020;-57
2022/11/14 06:01:09;;;;;;;6.22;3.85;;;;;;;;;;1760034;80;21616;-57
2022/11/14 06:03:54;;;;;;;5.72;3.87;;;;;;;;;;1751329;80;21572;-56
2022/11/14 06:06:39;;;;;;;6.58;4.37;;;;;;;;;;1760253;80;21072;-56
2022/11/14 06:09:24;;;;;;;6.62;4.83;;;;;;;;;;1760754;80;21043;-57
2022/11/14 06:12:08;;;;;;;7.97;5.00;;;;;;;;;;1763484;80;21539;-56
2022/11/14 06:14:53;;;;;;;8.68;5.45;;;;;;;;;;1747815;81;21061;-56
2022/11/14 06:17:38;;;;;;;7.30;4.90;;;;;;;;;;1753604;80;21013;-55
2022/11/14 06:20:24;;;;;;;6.92;4.58;;;;;;;;;;1761448;80;21592;-57
2022/11/14 06:23:09;;;;;;;8.38;4.83;;;;;;;;;;1761501;80;21075;-57
2022/11/14 06:25:59;;;;;;;9.80;5.25;;;;;;;;;;1759298;80;21056;-57
2022/11/14 06:28:44;;;;;;;10.13;5.53;;;;;;;;;;1759681;81;21082;-56
2022/11/14 06:31:28;;;;;;;8.80;5.17;;;;;;;;;;1761620;80;21083;-57
2022/11/14 06:34:13;;;;;;;10.00;5.87;;;;;;;;;;1759401;81;21027;-57
2022/11/14 06:36:57;;;;;;;7.72;5.05;;;;;;;;;;1760561;81;21116;-56
2022/11/14 06:39:43;;;;;;;7.37;4.78;;;;;;;;;;1765029;81;21041;-57
2022/11/14 06:42:28;;;;;;;8.20;4.97;;;;;;;;;;1758201;81;21091;-57
2022/11/14 06:45:13;;;;;;;8.68;5.25;;;;;;;;;;1759819;81;21038;-56
2022/11/14 06:47:58;;;;;;;7.40;5.35;;;;;;;;;;1763155;81;21027;-55
2022/11/14 06:50:43;;;;;;;7.58;4.58;;;;;;;;;;1758944;80;21071;-56
2022/11/14 06:56:00;;;;;;;10.78;6.78;;;;;;;;;;1813154;77;24640;-68
2022/11/14 06:58:46;;;;;;;10.15;6.03;;;;;;;;;;1761124;81;21023;-68
2022/11/14 07:01:31;;;;;;;10.48;6.00;;;;;;;;;;1760718;81;21024;-68
2022/11/14 07:04:17;;;;;;;12.30;6.10;;;;;;;;;;1757891;80;21349;-68
2022/11/14 07:07:01;;;;;;;11.97;6.78;;;;;;;;;;1733913;81;21037;-68
2022/11/14 07:09:45;;;;;;;11.97;6.80;;;;;;;;;;1731922;81;21057;-68
2022/11/14 07:12:31;;;;;;;11.22;6.60;;;;;;;;;;1756352;81;21042;-67
2022/11/14 07:15:17;;;;;;;13.25;7.60;;;;;;;;;;1746984;81;21077;-68
2022/11/14 07:18:02;;;;;;;11.60;6.95;;;;;;;;;;1733348;81;21023;-67
2022/11/14 07:20:47;;;;;;;11.90;6.50;;;;;;;;;;1739869;81;21370;-67
2022/11/14 07:23:32;;;;;;;11.78;6.97;;;;;;;;;;1746971;81;21514;-64
2022/11/14 07:26:17;;;;;;;12.55;7.28;;;;;;;;;;1766250;80;21027;-67
2022/11/14 07:29:02;;;;;;;12.05;7.12;;;;;;;;;;1767834;80;21050;-67
2022/11/14 07:31:46;;;;;;;11.63;6.10;;;;;;;;;;1741610;80;21018;-67
2022/11/14 07:34:31;;;;;;;13.93;7.15;;;;;;;;;;1751808;82;21065;-68
2022/11/14 07:37:16;;;;;;;11.48;6.95;;;;;;;;;;1758284;81;20975;-67
2022/11/14 07:40:00;;;;;;;13.78;8.60;;;;;;;;;;1760111;81;20999;-68
2022/11/14 07:42:45;;;;;;;22.25;11.83;;;;;;;;;;1759807;81;21048;-68
2022/11/14 07:45:30;;;;;;;16.00;9.60;;;;;;;;;;1739284;81;20990;-68
2022/11/14 07:48:15;;;;;;;16.62;7.70;;;;;;;;;;1740771;80;21344;-68
2022/11/14 07:51:02;;;;;;;11.80;6.75;;;;;;;;;;1723288;83;21068;-68
2022/11/14 07:53:46;;;;;;;11.73;6.25;;;;;;;;;;1710041;83;21457;-67
2022/11/14 07:56:31;;;;;;;9.75;5.95;;;;;;;;;;1662089;86;21060;-67
2022/11/14 07:59:16;;;;;;;11.73;6.50;;;;;;;;;;1687756;85;21079;-68
2022/11/14 08:02:01;;;;;;;12.85;6.20;;;;;;;;;;1672017;85;21110;-68
2022/11/14 08:04:46;;;;;;;12.98;6.85;;;;;;;;;;1688981;85;21009;-68
2022/11/14 08:07:31;;;;;;;11.88;5.53;;;;;;;;;;1705586;83;21064;-68
2022/11/14 08:10:16;;;;;;;11.63;5.97;;;;;;;;;;1704601;82;21048;-68
2022/11/14 08:13:04;;;;;;;9.20;6.05;;;;;;;;;;1718840;83;21117;-69
2022/11/14 08:15:49;;;;;;;12.58;6.37;;;;;;;;;;1718783;83;21038;-69
2022/11/14 08:18:34;;;;;;;9.95;6.45;;;;;;;;;;1721736;82;21123;-69
2022/11/14 08:21:18;;;;;;;11.57;7.15;;;;;;;;;;1722368;83;21101;-69
2022/11/14 08:24:03;;;;;;;13.00;7.30;;;;;;;;;;1722567;83;21037;-69
2022/11/14 08:26:49;;;;;;;19.20;12.65;;;;;;;;;;1710706;82;21038;-68
2022/11/14 08:29:34;;;;;;;35.28;20.25;;;;;;;;;;1709622;83;21552;-67
2022/11/14 08:32:19;;;;;;;21.70;13.78;;;;;;;;;;1724534;83;21036;-68
2022/11/14 08:35:04;;;;;;;28.32;15.55;;;;;;;;;;1701338;82;21067;-68
2022/11/14 08:37:50;;;;;;;21.75;12.98;;;;;;;;;;1712093;83;21032;-69
2022/11/14 08:40:35;;;;;;;32.93;17.90;;;;;;;;;;1724628;83;21072;-68
2022/11/14 08:43:20;;;;;;;21.05;10.18;;;;;;;;;;1702990;83;21074;-69
2022/11/14 08:46:04;;;;;;;14.60;8.60;;;;;;;;;;1710071;83;22025;-69
2022/11/14 08:48:49;;;;;;;12.03;7.50;;;;;;;;;;1719953;83;21583;-69
2022/11/14 08:51:35;;;;;;;11.73;6.78;;;;;;;;;;1721723;82;21052;-69
2022/11/14 08:54:20;;;;;;;14.33;6.83;;;;;;;;;;1713163;83;21606;-69
2022/11/14 08:57:07;;;;;;;13.08;6.75;;;;;;;;;;1711879;84;21080;-69
2022/11/14 08:59:52;;;;;;;11.18;6.87;;;;;;;;;;1741993;82;21461;-68
2022/11/14 09:02:38;;;;;;;12.10;6.58;;;;;;;;;;1741696;80;21067;-68
2022/11/14 09:05:23;;;;;;;13.98;6.58;;;;;;;;;;1724765;82;21027;-69
2022/11/14 09:08:08;;;;;;;13.35;7.70;;;;;;;;;;1721596;82;21050;-69
2022/11/14 09:10:53;;;;;;;13.30;7.10;;;;;;;;;;1726134;81;21033;-69
2022/11/14 09:13:38;;;;;;;14.07;8.28;;;;;;;;;;1744703;82;21061;-69
2022/11/14 09:16:23;;;;;;;14.28;8.18;;;;;;;;;;1765830;81;21611;-68
2022/11/14 09:19:08;;;;;;;15.63;8.63;;;;;;;;;;1763679;80;21015;-68
2022/11/14 09:21:53;;;;;;;15.58;8.58;;;;;;;;;;1742677;81;21046;-68
2022/11/14 09:24:37;;;;;;;15.03;8.83;;;;;;;;;;1746172;82;21119;-68
2022/11/14 09:27:22;;;;;;;12.33;8.05;;;;;;;;;;1746170;82;21532;-69
2022/11/14 09:30:08;;;;;;;14.00;8.23;;;;;;;;;;1710058;82;21048;-68
2022/11/14 09:32:53;;;;;;;15.28;8.40;;;;;;;;;;1733707;81;21054;-68
2022/11/14 09:35:38;;;;;;;10.88;7.22;;;;;;;;;;1699582;82;21520;-69
2022/11/14 09:38:22;;;;;;;13.58;7.90;;;;;;;;;;1741494;82;21056;-68
2022/11/14 09:41:19;;;;;;;14.87;8.85;;;;;;;;;;1746145;82;21037;-69
2022/11/14 09:44:09;;;;;;;13.48;8.80;;;;;;;;;;1739947;82;21021;-68
2022/11/14 09:46:56;;;;;;;10.50;6.72;;;;;;;;;;1726968;82;21044;-68
2022/11/14 09:49:42;;;;;;;12.73;7.47;;;;;;;;;;1760946;80;21068;-67
2022/11/14 09:52:28;;;;;;;13.43;7.45;;;;;;;;;;1728515;82;21006;-68
2022/11/14 09:55:20;;;;;;;12.10;7.85;;;;;;;;;;1717175;83;21513;-68
2022/11/14 09:58:05;;;;;;;10.53;6.58;;;;;;;;;;1721658;83;21115;-68
2022/11/14 10:00:55;;;;;;;13.00;7.08;;;;;;;;;;1724154;82;20977;-68
2022/11/14 10:03:51;;;;;;;12.37;6.55;;;;;;;;;;1722980;82;21060;-68
2022/11/14 10:06:38;;;;;;;12.23;6.70;;;;;;;;;;1719221;82;21036;-68
2022/11/14 10:09:31;;;;;;;11.60;6.87;;;;;;;;;;1718171;83;21082;-68
2022/11/14 10:12:21;;;;;;;10.98;6.37;;;;;;;;;;1714543;82;22281;-68
2022/11/14 10:15:08;;;;;;;9.33;5.62;;;;;;;;;;1702773;82;21072;-69
2022/11/14 10:17:54;;;;;;;10.45;6.37;;;;;;;;;;1722677;83;21048;-68
2022/11/14 10:20:53;;;;;;;8.13;5.92;;;;;;;;;;1713470;82;21088;-68
2022/11/14 10:23:42;;;;;;;9.08;6.25;;;;;;;;;;1702594;83;21064;-68
2022/11/14 10:26:31;;;;;;;11.65;6.28;;;;;;;;;;1739210;82;21048;-68
2022/11/14 10:29:20;;;;;;;9.48;5.58;;;;;;;;;;1721460;83;21037;-69
2022/11/14 10:32:19;;;;;;;9.28;5.87;;;;;;;;;;1746837;82;21045;-68
2022/11/14 10:35:10;;;;;;;8.68;5.60;;;;;;;;;;1723939;82;21575;-69
2022/11/14 10:37:56;;;;;;;8.70;5.45;;;;;;;;;;1729176;82;21048;-68
2022/11/14 10:40:43;;;;;;;8.35;4.97;;;;;;;;;;1745515;82;21040;-68
2022/11/14 10:43:32;;;;;;;7.67;4.78;;;;;;;;;;1728098;82;21157;-68
2022/11/14 10:46:22;;;;;;;7.37;4.28;;;;;;;;;;1721564;83;21080;-68
2022/11/14 10:49:20;;;;;;;9.25;4.60;;;;;;;;;;1722927;83;21103;-68
2022/11/14 10:52:14;;;;;;;7.22;4.70;;;;;;;;;;1721356;83;21505;-68
2022/11/14 10:55:00;;;;;;;8.43;4.62;;;;;;;;;;1726020;82;21060;-69
2022/11/14 10:57:45;;;;;;;9.93;4.92;;;;;;;;;;1746373;82;21487;-68
2022/11/14 11:00:30;;;;;;;8.80;5.20;;;;;;;;;;1739000;82;21065;-69
2022/11/14 11:03:14;;;;;;;8.60;4.80;;;;;;;;;;1725666;82;21159;-70
2022/11/14 11:06:01;;;;;;;8.43;4.50;;;;;;;;;;1743807;82;20984;-69
2022/11/14 11:11:52;;;;;;;7.57;4.87;;;;;;;;;;1737986;82;21047;-69
2022/11/14 11:14:38;;;;;;;9.05;5.22;;;;;;;;;;1741356;81;21019;-69
2022/11/14 11:17:23;;;;;;;9.68;5.35;;;;;;;;;;1741766;82;21062;-67
2022/11/14 11:20:25;;;;;;;12.43;5.55;;;;;;;;;;1732806;83;21058;-68
2022/11/14 11:23:12;;;;;;;8.73;5.45;;;;;;;;;;1728729;80;21061;-69
2022/11/14 11:26:04;;;;;;;11.78;5.85;;;;;;;;;;1741008;82;20984;-69
2022/11/14 11:29:06;;;;;;;9.88;5.65;;;;;;;;;;1735189;80;21024;-69
2022/11/14 11:31:52;;;;;;;9.40;4.85;;;;;;;;;;1732563;82;21000;-68
2022/11/14 11:34:36;;;;;;;11.12;5.65;;;;;;;;;;1746279;82;20996;-69
2022/11/14 11:37:33;;;;;;;7.62;4.30;;;;;;;;;;1743331;81;21585;-69
2022/11/14 11:40:19;;;;;;;6.90;4.47;;;;;;;;;;1743696;80;21021;-68
2022/11/14 11:43:12;;;;;;;7.65;4.08;;;;;;;;;;1786937;80;21612;-69
2022/11/14 11:45:58;;;;;;;6.50;4.03;;;;;;;;;;1787017;80;21559;-69
2022/11/14 11:48:43;;;;;;;5.47;3.27;;;;;;;;;;1759037;80;21102;-68
2022/11/14 11:51:30;;;;;;;6.62;3.77;;;;;;;;;;1744246;80;21076;-69
2022/11/14 11:54:15;;;;;;;8.45;4.08;;;;;;;;;;1744194;82;21731;-69
2022/11/14 11:57:02;;;;;;;6.22;3.65;;;;;;;;;;1752929;82;21048;-69
2022/11/14 11:59:49;;;;;;;4.95;3.40;;;;;;;;;;1754482;82;21028;-69
2022/11/14 12:02:34;;;;;;;5.85;3.52;;;;;;;;;;1735420;82;21650;-70
2022/11/14 12:05:22;;;;;;;5.97;3.20;;;;;;;;;;1755303;80;21575;-69
2022/11/14 12:08:12;;;;;;;5.53;3.33;;;;;;;;;;1738068;82;21018;-69
2022/11/14 12:10:57;;;;;;;7.75;3.50;;;;;;;;;;1727650;82;21039;-69
2022/11/14 12:13:47;;;;;;;6.00;3.30;;;;;;;;;;1737960;82;21080;-70
2022/11/14 12:16:42;;;;;;;8.58;4.20;;;;;;;;;;1752219;82;21042;-70
2022/11/14 12:19:38;;;;;;;6.92;3.65;;;;;;;;;;1755560;82;21088;-69
2022/11/14 12:22:42;;;;;;;6.17;3.80;;;;;;;;;;1755934;82;21030;-69
2022/11/14 12:25:28;;;;;;;4.42;3.20;;;;;;;;;;1754508;82;21029;-69
2022/11/14 12:28:31;;;;;;;7.15;3.60;;;;;;;;;;1748999;82;20995;-70
2022/11/14 12:31:15;;;;;;;7.97;4.45;;;;;;;;;;1756048;82;21061;-70
2022/11/14 12:34:02;;;;;;;6.67;4.53;;;;;;;;;;1758694;80;21061;-69
2022/11/14 12:36:46;;;;;;;6.62;4.15;;;;;;;;;;1774032;80;21538;-71
2022/11/14 12:39:31;;;;;;;6.05;3.62;;;;;;;;;;1728648;82;21085;-69
2022/11/14 12:42:18;;;;;;;6.97;4.35;;;;;;;;;;1744054;81;21009;-70
2022/11/14 12:45:06;;;;;;;8.75;4.62;;;;;;;;;;1748577;81;21040;-70
2022/11/14 12:47:59;;;;;;;8.00;4.45;;;;;;;;;;1731050;82;21103;-70
2022/11/14 12:50:44;;;;;;;7.45;4.53;;;;;;;;;;1705390;82;21494;-71
2022/11/14 12:53:37;;;;;;;6.47;4.60;;;;;;;;;;1756048;80;21025;-70
2022/11/14 12:56:30;;;;;;;8.50;4.10;;;;;;;;;;1742745;82;21072;-71
2022/11/14 12:59:16;;;;;;;7.55;4.37;;;;;;;;;;1744767;81;21027;-69
2022/11/14 13:02:03;;;;;;;6.78;4.47;;;;;;;;;;1708089;84;21074;-69
2022/11/14 13:04:58;;;;;;;6.78;4.15;;;;;;;;;;1740034;80;21161;-69
2022/11/14 13:08:03;;;;;;;8.13;4.67;;;;;;;;;;1744135;82;21072;-69
2022/11/14 13:10:49;;;;;;;7.40;4.70;;;;;;;;;;1745168;82;21077;-70
2022/11/14 13:22:48;;;;;;;8.40;5.25;;;;;;;;;;1755991;81;21030;-70
2022/11/14 13:25:33;;;;;;;10.78;6.50;;;;;;;;;;1741503;82;21085;-71
2022/11/14 13:28:39;;;;;;;10.23;6.08;;;;;;;;;;1736775;82;21013;-70
2022/11/14 13:31:25;;;;;;;9.25;5.62;;;;;;;;;;1749182;82;21057;-71
2022/11/14 13:34:20;;;;;;;10.18;5.20;;;;;;;;;;1736300;80;21064;-70
2022/11/14 13:37:24;;;;;;;10.98;5.65;;;;;;;;;;1739248;82;21058;-70
2022/11/14 13:40:23;;;;;;;10.08;5.22;;;;;;;;;;1753387;82;21084;-70
2022/11/14 13:43:15;;;;;;;9.83;5.42;;;;;;;;;;1744536;82;21010;-69
2022/11/14 13:46:02;;;;;;;12.00;6.25;;;;;;;;;;1756510;82;21219;-69
2022/11/14 13:48:55;;;;;;;9.63;6.28;;;;;;;;;;1750104;82;21049;-69
2022/11/14 13:51:41;;;;;;;;;;;;;;;;;;1746200;82;21124;-70
2022/11/14 13:54:27;;;;;;;13.30;7.62;;;;;;;;;;1730942;82;20482;-68
2022/11/14 13:57:21;;;;;;;13.25;7.20;;;;;;;;;;1725637;82;21062;-73
2022/11/14 14:00:12;;;;;;;13.03;7.15;;;;;;;;;;1695284;84;21542;-70
2022/11/14 14:14:51;;;;;;;16.95;9.55;;;;;;;;;;1796524;79;28212;-63
2022/11/14 14:17:47;;;;;;;13.00;7.92;;;;;;;;;;1799454;80;21266;-63
2022/11/14 14:20:33;;;;;;;14.50;7.62;;;;;;;;;;1787431;80;21522;-64
2022/11/14 14:23:38;;;;;;;14.87;6.95;;;;;;;;;;1792178;80;21619;-63
2022/11/14 14:26:40;;;;;;;13.40;7.72;;;;;;;;;;1769388;80;22154;-63
2022/11/14 14:29:31;;;;;;;16.35;8.70;;;;;;;;;;1790968;80;21041;-64
2022/11/14 14:32:16;;;;;;;13.88;7.55;;;;;;;;;;1796198;78;21055;-63
2022/11/14 14:35:19;;;;;;;15.95;7.42;;;;;;;;;;1782195;80;21539;-63
2022/11/14 14:38:06;;;;;;;17.20;8.90;;;;;;;;;;1788464;80;21024;-63
2022/11/14 14:40:52;;;;;;;19.12;9.25;;;;;;;;;;1797413;80;21032;-63
2022/11/14 14:43:39;;;;;;;18.37;9.70;;;;;;;;;;1777296;80;21063;-64
2022/11/14 14:46:30;;;;;;;13.55;6.92;;;;;;;;;;1737764;81;21550;-64
2022/11/14 14:49:22;;;;;;;16.55;8.05;;;;;;;;;;1742185;81;21050;-64
2022/11/14 14:52:26;;;;;;;14.55;6.72;;;;;;;;;;1716167;83;21109;-63
2022/11/14 14:55:21;;;;;;;12.18;7.20;;;;;;;;;;1734587;82;21454;-62
2022/11/14 14:58:15;;;;;;;11.70;6.58;;;;;;;;;;1750366;82;21052;-63
2022/11/14 15:01:16;;;;;;;12.20;6.30;;;;;;;;;;1725789;80;21034;-64
2022/11/14 15:04:03;;;;;;;16.57;7.53;;;;;;;;;;1723825;82;21150;-64
2022/11/14 15:06:47;;;;;;;12.30;5.95;;;;;;;;;;1705292;83;21087;-63
2022/11/14 15:09:32;;;;;;;14.85;6.78;;;;;;;;;;1716618;82;21050;-63
2022/11/14 15:12:18;;;;;;;13.58;6.20;;;;;;;;;;1718383;83;21496;-63
2022/11/14 15:15:05;;;;;;;15.08;6.70;;;;;;;;;;1717037;83;21595;-64
2022/11/14 15:17:50;;;;;;;12.18;6.10;;;;;;;;;;1695702;82;21495;-63
2022/11/14 15:20:36;;;;;;;11.22;6.50;;;;;;;;;;1727952;81;21068;-63
2022/11/14 15:23:21;;;;;;;11.55;6.83;;;;;;;;;;1716243;82;21047;-63
2022/11/14 15:26:15;;;;;;;13.40;6.55;;;;;;;;;;1677253;85;21076;-65
2022/11/14 15:29:05;;;;;;;13.75;7.42;;;;;;;;;;1692121;85;21032;-64
2022/11/14 15:31:55;;;;;;;13.98;6.67;;;;;;;;;;1712399;83;21428;-64
2022/11/14 15:34:40;;;;;;;16.17;6.65;;;;;;;;;;1696799;84;21076;-64
2022/11/14 15:37:25;;;;;;;13.50;6.35;;;;;;;;;;1753206;81;21083;-64
2022/11/14 15:40:15;;;;;;;12.55;6.05;;;;;;;;;;1730938;83;21103;-64
2022/11/14 15:43:01;;;;;;;9.65;4.60;;;;;;;;;;1679523;84;21095;-63
2022/11/14 15:45:46;;;;;;;9.20;4.65;;;;;;;;;;1698048;83;21067;-63
2022/11/14 15:48:31;;;;;;;9.53;4.17;;;;;;;;;;1716819;83;21043;-63
2022/11/14 15:51:16;;;;;;;7.87;4.35;;;;;;;;;;1721138;83;21055;-64
2022/11/14 15:54:02;;;;;;;9.68;4.50;;;;;;;;;;1722056;82;21550;-63
2022/11/14 15:56:47;;;;;;;7.33;4.80;;;;;;;;;;1716914;83;21048;-63
2022/11/14 15:59:33;;;;;;;6.72;4.30;;;;;;;;;;1707672;83;21001;-62
2022/11/14 16:02:20;;;;;;;9.50;5.42;;;;;;;;;;1716837;82;21064;-64
2022/11/14 16:05:06;;;;;;;11.30;6.28;;;;;;;;;;1714038;83;21094;-64
2022/11/14 16:07:50;;;;;;;9.25;6.15;;;;;;;;;;1704939;83;21068;-64
2022/11/14 16:10:35;;;;;;;10.48;6.22;;;;;;;;;;1714300;82;21020;-64
2022/11/14 16:13:19;;;;;;;8.33;5.33;;;;;;;;;;1708945;83;21563;-63
2022/11/14 16:16:05;;;;;;;7.50;4.65;;;;;;;;;;1687692;83;21586;-63
2022/11/14 16:18:50;;;;;;;7.72;4.28;;;;;;;;;;1674815;85;21068;-62
2022/11/14 16:21:35;;;;;;;7.20;4.55;;;;;;;;;;1683099;81;21049;-62
2022/11/14 16:24:21;;;;;;;6.65;4.10;;;;;;;;;;1728949;81;21110;-62
2022/11/14 16:27:05;;;;;;;5.33;3.87;;;;;;;;;;1728440;82;21040;-62
2022/11/14 16:29:50;;;;;;;9.33;3.83;;;;;;;;;;1678347;85;21125;-62
2022/11/14 16:32:35;;;;;;;6.42;3.83;;;;;;;;;;1728458;83;21055;-62
2022/11/14 16:35:24;;;;;;;6.90;3.83;;;;;;;;;;1723561;83;21084;-64
2022/11/14 16:38:10;;;;;;;5.70;4.33;;;;;;;;;;1728086;83;22132;-62
2022/11/14 16:40:55;;;;;;;5.12;3.52;;;;;;;;;;1704575;83;21052;-62
2022/11/14 16:43:40;;;;;;;6.65;4.03;;;;;;;;;;1724537;83;21027;-63
2022/11/14 16:46:24;;;;;;;6.00;3.83;;;;;;;;;;1722687;83;21032;-63
2022/11/14 16:49:10;;;;;;;6.30;4.00;;;;;;;;;;1727018;83;21036;-63
2022/11/14 16:51:57;;;;;;;5.53;4.05;;;;;;;;;;1727774;83;21028;-63
2022/11/14 16:54:41;;;;;;;7.72;4.67;;;;;;;;;;1699413;84;21106;-63
2022/11/14 16:57:26;;;;;;;8.83;4.05;;;;;;;;;;1721211;81;21026;-62
2022/11/14 17:12:10;;;;;;;8.05;5.28;;;;;;;;;;1802336;78;28055;-64